sensor_id;sensor_type;location;lat;lon;timestamp;pressure;altitude;pressure_sealevel;temperature;humidity
37856;BME280;23694;43.274;26.924;2023-02-28T00:03:06;99773.63;;;5.62;98.80
37856;BME280;23694;43.274;26.924;2023-02-28T00:06:11;99769.59;;;5.54;98.35
37856;BME280;23694;43.274;26.924;2023-02-28T00:08:44;99775.78;;;5.50;99.11
37856;BME280;23694;43.274;26.924;2023-02-28T00:14:52;99770.44;;;5.54;99.80
37856;BME280;23694;43.274;26.924;2023-02-28T00:17:45;99784.34;;;5.53;99.78
37856;BME280;23694;43.274;26.924;2023-02-28T00:20:33;99790.41;;;5.27;100.00
37856;BME280;23694;43.274;26.924;2023-02-28T00:24:18;99797.59;;;5.46;100.00
37856;BME280;23694;43.274;26.924;2023-02-28T00:26:37;99793.97;;;5.50;99.57
37856;BME280;23694;43.274;26.924;2023-02-28T00:32:30;99801.09;;;5.45;98.67
37856;BME280;23694;43.274;26.924;2023-02-28T00:39:07;99800.41;;;5.64;97.70
37856;BME280;23694;43.274;26.924;2023-02-28T00:41:56;99800.44;;;5.63;98.03
37856;BME280;23694;43.274;26.924;2023-02-28T00:45:06;99802.47;;;5.55;97.67
37856;BME280;23694;43.274;26.924;2023-02-28T00:48:01;99802.09;;;5.40;98.27
37856;BME280;23694;43.274;26.924;2023-02-28T00:51:06;99790.22;;;5.33;98.92
37856;BME280;23694;43.274;26.924;2023-02-28T00:53:45;99791.38;;;5.25;99.93
37856;BME280;23694;43.274;26.924;2023-02-28T00:59:55;99811.59;;;5.41;100.00
37856;BME280;23694;43.274;26.924;2023-02-28T01:02:53;99807.34;;;5.39;100.00
37856;BME280;23694;43.274;26.924;2023-02-28T01:05:55;99804.84;;;5.61;100.00
37856;BME280;23694;43.274;26.924;2023-02-28T01:09:04;99807.72;;;5.78;99.16
37856;BME280;23694;43.274;26.924;2023-02-28T01:12:36;99798.31;;;5.74;97.88
37856;BME280;23694;43.274;26.924;2023-02-28T01:15:30;99761.69;;;5.57;98.07
37856;BME280;23694;43.274;26.924;2023-02-28T01:18:01;99746.16;;;5.30;99.95
37856;BME280;23694;43.274;26.924;2023-02-28T01:20:39;99759.34;;;5.24;100.00
37856;BME280;23694;43.274;26.924;2023-02-28T01:24:07;99763.47;;;5.03;100.00
37856;BME280;23694;43.274;26.924;2023-02-28T01:27:02;99784.59;;;4.93;100.00
37856;BME280;23694;43.274;26.924;2023-02-28T01:29:58;99792.94;;;5.02;100.00
37856;BME280;23694;43.274;26.924;2023-02-28T01:32:50;99790.34;;;5.02;100.00
37856;BME280;23694;43.274;26.924;2023-02-28T01:35:56;99790.09;;;5.10;100.00
37856;BME280;23694;43.274;26.924;2023-02-28T01:38:35;99794.34;;;5.13;100.00
37856;BME280;23694;43.274;26.924;2023-02-28T01:44:06;99788.66;;;5.01;100.00
37856;BME280;23694;43.274;26.924;2023-02-28T01:47:07;99793.09;;;4.98;100.00
37856;BME280;23694;43.274;26.924;2023-02-28T01:50:04;99797.78;;;4.87;100.00
37856;BME280;23694;43.274;26.924;2023-02-28T01:59:07;99787.78;;;4.74;100.00
37856;BME280;23694;43.274;26.924;2023-02-28T02:01:53;99790.75;;;4.90;100.00
37856;BME280;23694;43.274;26.924;2023-02-28T02:05:05;99796.06;;;4.86;100.00
37856;BME280;23694;43.274;26.924;2023-02-28T02:39:38;99792.47;;;4.90;100.00
37856;BME280;23694;43.274;26.924;2023-02-28T02:42:28;99795.31;;;4.82;100.00
37856;BME280;23694;43.274;26.924;2023-02-28T02:51:01;99793.34;;;4.90;100.00
37856;BME280;23694;43.274;26.924;2023-02-28T02:56:47;99795.84;;;4.93;100.00
37856;BME280;23694;43.274;26.924;2023-02-28T02:59:29;99811.41;;;4.93;100.00
37856;BME280;23694;43.274;26.924;2023-02-28T03:02:43;99799.03;;;5.01;100.00
37856;BME280;23694;43.274;26.924;2023-02-28T03:09:02;99792.44;;;4.91;100.00
37856;BME280;23694;43.274;26.924;2023-02-28T03:11:48;99808.72;;;4.96;100.00
37856;BME280;23694;43.274;26.924;2023-02-28T03:21:09;99803.34;;;4.74;100.00
37856;BME280;23694;43.274;26.924;2023-02-28T03:30:45;99829.13;;;4.81;100.00
37856;BME280;23694;43.274;26.924;2023-02-28T03:33:38;99832.78;;;4.73;100.00
37856;BME280;23694;43.274;26.924;2023-02-28T03:39:35;99821.50;;;4.74;100.00
37856;BME280;23694;43.274;26.924;2023-02-28T03:51:12;99824.81;;;4.50;100.00
37856;BME280;23694;43.274;26.924;2023-02-28T03:54:01;99833.38;;;4.54;100.00
37856;BME280;23694;43.274;26.924;2023-02-28T04:00:15;99837.09;;;4.45;100.00
37856;BME280;23694;43.274;26.924;2023-02-28T04:03:06;99840.16;;;4.59;100.00
37856;BME280;23694;43.274;26.924;2023-02-28T04:06:20;99850.56;;;4.58;100.00
37856;BME280;23694;43.274;26.924;2023-02-28T04:09:11;99855.25;;;4.74;100.00
37856;BME280;23694;43.274;26.924;2023-02-28T04:12:10;99849.13;;;4.77;100.00
37856;BME280;23694;43.274;26.924;2023-02-28T04:15:06;99857.00;;;4.74;100.00
37856;BME280;23694;43.274;26.924;2023-02-28T04:27:34;99843.16;;;4.44;100.00
37856;BME280;23694;43.274;26.924;2023-02-28T04:30:58;99853.94;;;4.30;100.00
37856;BME280;23694;43.274;26.924;2023-02-28T04:33:40;99847.19;;;4.25;100.00
37856;BME280;23694;43.274;26.924;2023-02-28T04:39:08;99855.06;;;4.22;100.00
37856;BME280;23694;43.274;26.924;2023-02-28T04:42:00;99851.66;;;4.20;100.00
37856;BME280;23694;43.274;26.924;2023-02-28T04:44:47;99856.19;;;4.11;100.00
37856;BME280;23694;43.274;26.924;2023-02-28T04:48:08;99868.22;;;4.14;100.00
37856;BME280;23694;43.274;26.924;2023-02-28T04:51:09;99866.47;;;4.14;100.00
37856;BME280;23694;43.274;26.924;2023-02-28T04:54:09;99872.41;;;4.20;100.00
37856;BME280;23694;43.274;26.924;2023-02-28T04:57:05;99872.69;;;4.09;100.00
37856;BME280;23694;43.274;26.924;2023-02-28T04:59:48;99862.88;;;3.88;100.00
37856;BME280;23694;43.274;26.924;2023-02-28T05:05:13;99869.69;;;3.92;100.00
37856;BME280;23694;43.274;26.924;2023-02-28T05:08:01;99868.56;;;4.02;100.00
37856;BME280;23694;43.274;26.924;2023-02-28T05:11:13;99874.34;;;4.11;100.00
37856;BME280;23694;43.274;26.924;2023-02-28T05:14:10;99884.63;;;4.14;100.00
37856;BME280;23694;43.274;26.924;2023-02-28T05:19:17;99891.81;;;4.05;100.00
37856;BME280;23694;43.274;26.924;2023-02-28T05:25:52;99911.69;;;4.04;100.00
37856;BME280;23694;43.274;26.924;2023-02-28T05:30:53;99921.38;;;3.98;100.00
37856;BME280;23694;43.274;26.924;2023-02-28T05:33:23;99909.38;;;3.94;100.00
37856;BME280;23694;43.274;26.924;2023-02-28T05:36:01;99911.94;;;3.95;100.00
37856;BME280;23694;43.274;26.924;2023-02-28T05:38:35;99925.44;;;4.08;100.00
37856;BME280;23694;43.274;26.924;2023-02-28T05:46:45;99914.69;;;4.22;100.00
37856;BME280;23694;43.274;26.924;2023-02-28T05:49:14;99924.72;;;4.34;100.00
37856;BME280;23694;43.274;26.924;2023-02-28T05:51:43;99932.75;;;4.25;100.00
37856;BME280;23694;43.274;26.924;2023-02-28T05:54:15;99930.50;;;4.12;100.00
37856;BME280;23694;43.274;26.924;2023-02-28T05:56:41;99937.53;;;4.07;100.00
37856;BME280;23694;43.274;26.924;2023-02-28T05:59:13;99930.69;;;4.05;100.00
37856;BME280;23694;43.274;26.924;2023-02-28T06:02:16;99933.25;;;4.06;100.00
37856;BME280;23694;43.274;26.924;2023-02-28T06:04:47;99938.47;;;4.05;100.00
37856;BME280;23694;43.274;26.924;2023-02-28T06:07:16;99940.00;;;4.12;100.00
37856;BME280;23694;43.274;26.924;2023-02-28T06:09:43;99940.69;;;4.19;100.00
37856;BME280;23694;43.274;26.924;2023-02-28T06:12:36;99945.97;;;4.16;100.00
37856;BME280;23694;43.274;26.924;2023-02-28T06:15:27;99935.59;;;4.16;100.00
37856;BME280;23694;43.274;26.924;2023-02-28T06:18:21;99937.09;;;4.24;100.00
37856;BME280;23694;43.274;26.924;2023-02-28T06:21:17;99932.41;;;4.37;100.00
37856;BME280;23694;43.274;26.924;2023-02-28T06:24:08;99929.56;;;4.46;100.00
37856;BME280;23694;43.274;26.924;2023-02-28T06:27:24;99929.09;;;4.32;100.00
37856;BME280;23694;43.274;26.924;2023-02-28T06:33:00;99929.41;;;4.21;100.00
37856;BME280;23694;43.274;26.924;2023-02-28T06:36:08;99921.53;;;4.24;100.00
37856;BME280;23694;43.274;26.924;2023-02-28T06:41:58;99932.69;;;4.28;100.00
37856;BME280;23694;43.274;26.924;2023-02-28T06:45:06;99929.41;;;4.21;100.00
37856;BME280;23694;43.274;26.924;2023-02-28T06:48:05;99950.06;;;4.24;100.00
37856;BME280;23694;43.274;26.924;2023-02-28T06:51:05;99934.66;;;4.18;100.00
37856;BME280;23694;43.274;26.924;2023-02-28T06:53:52;99938.84;;;4.24;100.00
37856;BME280;23694;43.274;26.924;2023-02-28T06:56:49;99944.88;;;4.24;100.00
37856;BME280;23694;43.274;26.924;2023-02-28T06:59:57;99935.91;;;4.36;100.00
37856;BME280;23694;43.274;26.924;2023-02-28T07:02:51;99909.41;;;4.25;100.00
37856;BME280;23694;43.274;26.924;2023-02-28T07:05:35;99929.16;;;4.30;100.00
37856;BME280;23694;43.274;26.924;2023-02-28T07:08:35;99921.31;;;4.32;100.00
37856;BME280;23694;43.274;26.924;2023-02-28T07:11:57;99922.94;;;4.36;100.00
37856;BME280;23694;43.274;26.924;2023-02-28T07:14:49;99927.09;;;4.41;100.00
37856;BME280;23694;43.274;26.924;2023-02-28T07:18:03;99925.16;;;4.50;100.00
37856;BME280;23694;43.274;26.924;2023-02-28T07:21:06;99931.19;;;4.50;100.00
37856;BME280;23694;43.274;26.924;2023-02-28T07:27:26;99937.94;;;4.57;100.00
37856;BME280;23694;43.274;26.924;2023-02-28T07:30:05;99926.53;;;4.63;100.00
37856;BME280;23694;43.274;26.924;2023-02-28T07:33:31;99923.91;;;4.64;100.00
37856;BME280;23694;43.274;26.924;2023-02-28T07:36:46;99927.59;;;4.85;100.00
37856;BME280;23694;43.274;26.924;2023-02-28T07:48:27;99927.22;;;4.69;100.00
37856;BME280;23694;43.274;26.924;2023-02-28T07:51:26;99924.88;;;4.60;100.00
37856;BME280;23694;43.274;26.924;2023-02-28T07:54:51;99931.38;;;4.75;100.00
37856;BME280;23694;43.274;26.924;2023-02-28T08:00:26;99946.75;;;4.81;100.00
37856;BME280;23694;43.274;26.924;2023-02-28T08:03:14;99941.41;;;4.87;100.00
37856;BME280;23694;43.274;26.924;2023-02-28T08:06:46;99942.59;;;4.75;100.00
37856;BME280;23694;43.274;26.924;2023-02-28T08:12:16;99948.06;;;4.96;100.00
37856;BME280;23694;43.274;26.924;2023-02-28T08:14:55;99940.81;;;5.07;100.00
37856;BME280;23694;43.274;26.924;2023-02-28T08:20:28;99935.16;;;5.22;100.00
37856;BME280;23694;43.274;26.924;2023-02-28T08:23:21;99938.38;;;5.30;100.00
37856;BME280;23694;43.274;26.924;2023-02-28T08:25:56;99948.06;;;5.25;100.00
37856;BME280;23694;43.274;26.924;2023-02-28T08:28:32;99943.31;;;5.10;100.00
37856;BME280;23694;43.274;26.924;2023-02-28T08:31:22;99951.38;;;5.30;100.00
37856;BME280;23694;43.274;26.924;2023-02-28T08:36:46;99957.59;;;5.25;100.00
37856;BME280;23694;43.274;26.924;2023-02-28T08:39:52;99947.06;;;5.29;100.00
37856;BME280;23694;43.274;26.924;2023-02-28T08:42:37;99953.22;;;5.27;100.00
37856;BME280;23694;43.274;26.924;2023-02-28T08:45:28;99948.75;;;5.30;100.00
37856;BME280;23694;43.274;26.924;2023-02-28T08:48:11;99956.56;;;5.30;100.00
37856;BME280;23694;43.274;26.924;2023-02-28T08:51:10;99961.56;;;5.36;100.00
37856;BME280;23694;43.274;26.924;2023-02-28T08:54:03;99953.91;;;5.32;100.00
37856;BME280;23694;43.274;26.924;2023-02-28T09:00:08;99955.09;;;5.22;100.00
37856;BME280;23694;43.274;26.924;2023-02-28T09:03:21;99967.28;;;5.18;100.00
37856;BME280;23694;43.274;26.924;2023-02-28T09:06:37;99964.69;;;5.18;100.00
37856;BME280;23694;43.274;26.924;2023-02-28T09:10:02;99966.53;;;5.15;100.00
37856;BME280;23694;43.274;26.924;2023-02-28T09:12:51;99958.25;;;5.31;100.00
37856;BME280;23694;43.274;26.924;2023-02-28T09:19:07;99960.06;;;5.29;100.00
37856;BME280;23694;43.274;26.924;2023-02-28T09:21:59;99959.16;;;5.30;100.00
37856;BME280;23694;43.274;26.924;2023-02-28T09:27:43;99957.28;;;5.35;100.00
37856;BME280;23694;43.274;26.924;2023-02-28T09:30:15;99963.41;;;5.33;100.00
37856;BME280;23694;43.274;26.924;2023-02-28T09:32:48;99960.19;;;5.25;100.00
37856;BME280;23694;43.274;26.924;2023-02-28T09:35:21;99966.16;;;5.28;100.00
37856;BME280;23694;43.274;26.924;2023-02-28T09:37:55;99969.78;;;5.23;100.00
37856;BME280;23694;43.274;26.924;2023-02-28T09:43:22;99968.09;;;5.22;100.00
37856;BME280;23694;43.274;26.924;2023-02-28T09:45:58;99972.91;;;5.34;100.00
37856;BME280;23694;43.274;26.924;2023-02-28T09:48:52;99967.91;;;5.28;100.00
37856;BME280;23694;43.274;26.924;2023-02-28T09:58:39;99969.72;;;4.95;100.00
37856;BME280;23694;43.274;26.924;2023-02-28T10:05:00;99960.00;;;5.01;100.00
37856;BME280;23694;43.274;26.924;2023-02-28T10:08:05;99965.97;;;5.05;100.00
37856;BME280;23694;43.274;26.924;2023-02-28T10:10:49;99960.84;;;5.02;100.00
37856;BME280;23694;43.274;26.924;2023-02-28T10:17:08;99952.50;;;4.92;100.00
37856;BME280;23694;43.274;26.924;2023-02-28T10:20:10;99951.56;;;4.95;100.00
37856;BME280;23694;43.274;26.924;2023-02-28T10:29:21;99946.84;;;5.07;100.00
37856;BME280;23694;43.274;26.924;2023-02-28T10:35:54;99945.84;;;5.12;100.00
37856;BME280;23694;43.274;26.924;2023-02-28T10:38:32;99940.81;;;5.07;100.00
37856;BME280;23694;43.274;26.924;2023-02-28T10:41:37;99936.69;;;5.00;100.00
37856;BME280;23694;43.274;26.924;2023-02-28T10:46:48;99934.31;;;4.92;100.00
37856;BME280;23694;43.274;26.924;2023-02-28T10:49:33;99929.56;;;5.06;100.00
37856;BME280;23694;43.274;26.924;2023-02-28T10:52:08;99912.91;;;5.14;100.00
37856;BME280;23694;43.274;26.924;2023-02-28T10:54:50;99921.72;;;5.08;100.00
37856;BME280;23694;43.274;26.924;2023-02-28T11:01:08;99904.41;;;5.08;100.00
37856;BME280;23694;43.274;26.924;2023-02-28T11:11:26;99892.34;;;5.06;100.00
37856;BME280;23694;43.274;26.924;2023-02-28T11:14:27;99889.00;;;5.02;100.00
37856;BME280;23694;43.274;26.924;2023-02-28T11:17:28;99883.91;;;4.99;100.00
37856;BME280;23694;43.274;26.924;2023-02-28T11:27:06;99882.44;;;4.91;100.00
37856;BME280;23694;43.274;26.924;2023-02-28T11:39:07;99865.44;;;5.08;100.00
37856;BME280;23694;43.274;26.924;2023-02-28T11:45:42;99869.69;;;5.11;100.00
37856;BME280;23694;43.274;26.924;2023-02-28T11:51:53;99868.81;;;4.84;100.00
37856;BME280;23694;43.274;26.924;2023-02-28T11:55:06;99876.44;;;4.89;100.00
37856;BME280;23694;43.274;26.924;2023-02-28T12:27:50;99887.41;;;4.98;100.00
37856;BME280;23694;43.274;26.924;2023-02-28T12:48:11;99871.09;;;5.23;100.00
37856;BME280;23694;43.274;26.924;2023-02-28T12:51:07;99866.34;;;5.07;100.00
37856;BME280;23694;43.274;26.924;2023-02-28T13:00:37;99860.16;;;5.12;100.00
37856;BME280;23694;43.274;26.924;2023-02-28T13:04:19;99864.50;;;5.11;100.00
37856;BME280;23694;43.274;26.924;2023-02-28T13:07:11;99856.84;;;5.06;100.00
37856;BME280;23694;43.274;26.924;2023-02-28T13:10:27;99861.34;;;5.01;100.00
37856;BME280;23694;43.274;26.924;2023-02-28T13:17:38;99857.16;;;4.97;100.00
37856;BME280;23694;43.274;26.924;2023-02-28T13:23:04;99863.94;;;5.01;100.00
37856;BME280;23694;43.274;26.924;2023-02-28T13:26:06;99860.44;;;5.02;100.00
37856;BME280;23694;43.274;26.924;2023-02-28T13:29:02;99863.19;;;4.98;100.00
37856;BME280;23694;43.274;26.924;2023-02-28T13:47:41;99851.19;;;4.94;100.00
37856;BME280;23694;43.274;26.924;2023-02-28T13:54:04;99855.50;;;4.95;100.00
37856;BME280;23694;43.274;26.924;2023-02-28T14:07:56;99855.22;;;5.04;100.00
37856;BME280;23694;43.274;26.924;2023-02-28T14:20:22;99847.66;;;4.96;100.00
37856;BME280;23694;43.274;26.924;2023-02-28T14:29:33;99860.72;;;4.93;100.00
37856;BME280;23694;43.274;26.924;2023-02-28T14:33:13;99864.03;;;4.98;100.00
37856;BME280;23694;43.274;26.924;2023-02-28T14:38:36;99863.47;;;4.89;100.00
37856;BME280;23694;43.274;26.924;2023-02-28T14:41:40;99866.97;;;4.88;100.00
37856;BME280;23694;43.274;26.924;2023-02-28T14:44:40;99850.34;;;4.93;100.00
37856;BME280;23694;43.274;26.924;2023-02-28T14:52:23;99846.72;;;4.99;100.00
37856;BME280;23694;43.274;26.924;2023-02-28T14:55:25;99853.00;;;4.92;100.00
37856;BME280;23694;43.274;26.924;2023-02-28T15:01:25;99861.19;;;4.78;100.00
37856;BME280;23694;43.274;26.924;2023-02-28T15:05:13;99861.34;;;4.73;100.00
37856;BME280;23694;43.274;26.924;2023-02-28T15:08:38;99857.81;;;4.76;100.00
37856;BME280;23694;43.274;26.924;2023-02-28T15:12:02;99868.22;;;4.74;100.00
37856;BME280;23694;43.274;26.924;2023-02-28T15:15:04;99867.47;;;4.71;100.00
37856;BME280;23694;43.274;26.924;2023-02-28T15:18:04;99871.16;;;4.64;100.00
37856;BME280;23694;43.274;26.924;2023-02-28T15:20:42;99868.69;;;4.59;100.00
37856;BME280;23694;43.274;26.924;2023-02-28T15:23:46;99870.34;;;4.62;100.00
37856;BME280;23694;43.274;26.924;2023-02-28T15:26:54;99870.53;;;4.56;100.00
37856;BME280;23694;43.274;26.924;2023-02-28T15:45:56;99883.19;;;4.66;100.00
37856;BME280;23694;43.274;26.924;2023-02-28T15:49:00;99888.56;;;4.60;100.00
37856;BME280;23694;43.274;26.924;2023-02-28T15:51:48;99892.13;;;4.55;100.00
37856;BME280;23694;43.274;26.924;2023-02-28T16:00:11;99894.72;;;4.56;100.00
37856;BME280;23694;43.274;26.924;2023-02-28T16:10:26;99890.44;;;4.54;100.00
37856;BME280;23694;43.274;26.924;2023-02-28T16:13:23;99887.75;;;4.58;100.00
37856;BME280;23694;43.274;26.924;2023-02-28T16:16:02;99888.69;;;4.54;100.00
37856;BME280;23694;43.274;26.924;2023-02-28T16:24:11;99902.06;;;4.71;100.00
37856;BME280;23694;43.274;26.924;2023-02-28T16:30:27;99901.66;;;4.54;100.00
37856;BME280;23694;43.274;26.924;2023-02-28T16:39:07;99899.28;;;4.46;100.00
37856;BME280;23694;43.274;26.924;2023-02-28T16:42:07;99904.69;;;4.39;100.00
37856;BME280;23694;43.274;26.924;2023-02-28T16:47:56;99903.59;;;4.47;100.00
37856;BME280;23694;43.274;26.924;2023-02-28T16:51:01;99902.69;;;4.49;100.00
37856;BME280;23694;43.274;26.924;2023-02-28T16:57:08;99898.91;;;4.29;100.00
37856;BME280;23694;43.274;26.924;2023-02-28T17:03:03;99901.09;;;4.13;100.00
37856;BME280;23694;43.274;26.924;2023-02-28T17:08:49;99909.97;;;4.05;100.00
37856;BME280;23694;43.274;26.924;2023-02-28T17:12:02;99916.50;;;4.18;100.00
37856;BME280;23694;43.274;26.924;2023-02-28T17:15:05;99918.25;;;4.18;100.00
37856;BME280;23694;43.274;26.924;2023-02-28T17:17:53;99923.03;;;4.00;100.00
37856;BME280;23694;43.274;26.924;2023-02-28T17:23:30;99927.22;;;4.06;100.00
37856;BME280;23694;43.274;26.924;2023-02-28T17:33:23;99920.50;;;3.99;100.00
37856;BME280;23694;43.274;26.924;2023-02-28T17:36:25;99919.56;;;4.01;100.00
37856;BME280;23694;43.274;26.924;2023-02-28T17:39:26;99910.41;;;3.87;100.00
37856;BME280;23694;43.274;26.924;2023-02-28T17:42:17;99923.94;;;3.99;100.00
37856;BME280;23694;43.274;26.924;2023-02-28T17:45:29;99925.03;;;3.89;100.00
37856;BME280;23694;43.274;26.924;2023-02-28T17:48:31;99922.78;;;3.75;100.00
37856;BME280;23694;43.274;26.924;2023-02-28T17:51:31;99920.44;;;4.00;100.00
37856;BME280;23694;43.274;26.924;2023-02-28T17:54:09;99921.59;;;3.89;100.00
37856;BME280;23694;43.274;26.924;2023-02-28T17:56:36;99919.84;;;3.91;100.00
37856;BME280;23694;43.274;26.924;2023-02-28T17:59:04;99917.28;;;3.88;100.00
37856;BME280;23694;43.274;26.924;2023-02-28T18:01:33;99913.44;;;4.04;100.00
37856;BME280;23694;43.274;26.924;2023-02-28T18:04:05;99919.03;;;3.87;100.00
37856;BME280;23694;43.274;26.924;2023-02-28T18:10:11;99911.56;;;3.75;100.00
37856;BME280;23694;43.274;26.924;2023-02-28T18:15:44;99919.16;;;3.82;100.00
37856;BME280;23694;43.274;26.924;2023-02-28T18:18:17;99916.88;;;3.70;100.00
37856;BME280;23694;43.274;26.924;2023-02-28T18:20:56;99919.34;;;3.75;100.00
37856;BME280;23694;43.274;26.924;2023-02-28T18:23:31;99928.13;;;3.69;100.00
37856;BME280;23694;43.274;26.924;2023-02-28T18:29:28;99936.38;;;3.85;100.00
37856;BME280;23694;43.274;26.924;2023-02-28T18:32:08;99939.06;;;3.80;100.00
37856;BME280;23694;43.274;26.924;2023-02-28T18:34:45;99925.47;;;3.72;100.00
37856;BME280;23694;43.274;26.924;2023-02-28T18:45:23;99948.19;;;3.61;100.00
37856;BME280;23694;43.274;26.924;2023-02-28T18:48:08;99941.13;;;3.68;100.00
37856;BME280;23694;43.274;26.924;2023-02-28T18:53:36;99948.47;;;3.85;100.00
37856;BME280;23694;43.274;26.924;2023-02-28T18:59:08;99955.53;;;3.78;100.00
37856;BME280;23694;43.274;26.924;2023-02-28T19:05:07;99948.16;;;3.98;100.00
37856;BME280;23694;43.274;26.924;2023-02-28T19:08:03;99943.03;;;3.95;100.00
37856;BME280;23694;43.274;26.924;2023-02-28T19:11:05;99950.88;;;3.94;100.00
37856;BME280;23694;43.274;26.924;2023-02-28T19:13:39;99939.91;;;3.81;100.00
37856;BME280;23694;43.274;26.924;2023-02-28T19:22:05;99942.63;;;3.76;100.00
37856;BME280;23694;43.274;26.924;2023-02-28T19:24:46;99933.31;;;3.69;100.00
37856;BME280;23694;43.274;26.924;2023-02-28T19:27:45;99934.47;;;3.93;100.00
37856;BME280;23694;43.274;26.924;2023-02-28T19:30:26;99936.13;;;3.96;100.00
37856;BME280;23694;43.274;26.924;2023-02-28T19:33:08;99924.28;;;3.84;100.00
37856;BME280;23694;43.274;26.924;2023-02-28T19:35:42;99931.94;;;3.89;100.00
37856;BME280;23694;43.274;26.924;2023-02-28T19:38:32;99929.38;;;3.89;100.00
37856;BME280;23694;43.274;26.924;2023-02-28T19:45:06;99928.97;;;3.70;100.00
37856;BME280;23694;43.274;26.924;2023-02-28T19:47:52;99916.25;;;3.61;100.00
37856;BME280;23694;43.274;26.924;2023-02-28T19:50:42;99923.22;;;3.59;100.00
37856;BME280;23694;43.274;26.924;2023-02-28T19:53:23;99924.06;;;3.59;100.00
37856;BME280;23694;43.274;26.924;2023-02-28T19:58:47;99920.59;;;3.60;100.00
37856;BME280;23694;43.274;26.924;2023-02-28T20:01:58;99917.47;;;3.46;100.00
37856;BME280;23694;43.274;26.924;2023-02-28T20:04:27;99918.13;;;3.54;100.00
37856;BME280;23694;43.274;26.924;2023-02-28T20:09:37;99916.50;;;3.50;100.00
37856;BME280;23694;43.274;26.924;2023-02-28T20:12:23;99908.75;;;3.50;100.00
37856;BME280;23694;43.274;26.924;2023-02-28T20:17:47;99908.81;;;3.47;100.00
37856;BME280;23694;43.274;26.924;2023-02-28T20:20:35;99911.44;;;3.45;100.00
37856;BME280;23694;43.274;26.924;2023-02-28T20:23:10;99905.34;;;3.48;100.00
37856;BME280;23694;43.274;26.924;2023-02-28T20:32:06;99909.19;;;3.32;100.00
37856;BME280;23694;43.274;26.924;2023-02-28T20:38:26;99889.13;;;3.40;100.00
37856;BME280;23694;43.274;26.924;2023-02-28T20:47:09;99879.03;;;3.29;100.00
37856;BME280;23694;43.274;26.924;2023-02-28T20:50:08;99871.34;;;3.26;100.00
37856;BME280;23694;43.274;26.924;2023-02-28T20:53:13;99869.50;;;3.31;100.00
37856;BME280;23694;43.274;26.924;2023-02-28T20:56:05;99862.34;;;3.41;100.00
37856;BME280;23694;43.274;26.924;2023-02-28T20:59:08;99857.97;;;3.43;100.00
37856;BME280;23694;43.274;26.924;2023-02-28T21:02:22;99855.59;;;3.35;100.00
37856;BME280;23694;43.274;26.924;2023-02-28T21:05:05;99857.50;;;3.27;100.00
37856;BME280;23694;43.274;26.924;2023-02-28T21:11:03;99858.03;;;3.41;100.00
37856;BME280;23694;43.274;26.924;2023-02-28T21:13:49;99859.56;;;3.48;100.00
37856;BME280;23694;43.274;26.924;2023-02-28T21:16:36;99856.28;;;3.42;100.00
37856;BME280;23694;43.274;26.924;2023-02-28T21:19:15;99854.53;;;3.42;100.00
37856;BME280;23694;43.274;26.924;2023-02-28T21:22:20;99853.84;;;3.36;100.00
37856;BME280;23694;43.274;26.924;2023-02-28T21:24:59;99852.09;;;3.36;100.00
37856;BME280;23694;43.274;26.924;2023-02-28T21:28:05;99849.53;;;3.36;100.00
37856;BME280;23694;43.274;26.924;2023-02-28T21:31:06;99841.09;;;3.28;100.00
37856;BME280;23694;43.274;26.924;2023-02-28T21:33:59;99846.19;;;3.31;100.00
37856;BME280;23694;43.274;26.924;2023-02-28T21:36:54;99848.50;;;3.42;100.00
37856;BME280;23694;43.274;26.924;2023-02-28T21:39:28;99842.56;;;3.38;100.00
37856;BME280;23694;43.274;26.924;2023-02-28T21:42:06;99847.81;;;3.35;100.00
37856;BME280;23694;43.274;26.924;2023-02-28T21:48:05;99839.84;;;3.43;100.00
37856;BME280;23694;43.274;26.924;2023-02-28T21:51:16;99847.34;;;3.54;100.00
37856;BME280;23694;43.274;26.924;2023-02-28T21:54:05;99849.25;;;3.47;100.00
37856;BME280;23694;43.274;26.924;2023-02-28T21:56:40;99862.31;;;3.42;100.00
37856;BME280;23694;43.274;26.924;2023-02-28T21:59:14;99848.63;;;3.37;100.00
37856;BME280;23694;43.274;26.924;2023-02-28T22:01:49;99849.38;;;3.42;100.00
37856;BME280;23694;43.274;26.924;2023-02-28T22:04:28;99856.00;;;3.53;100.00
37856;BME280;23694;43.274;26.924;2023-02-28T22:07:06;99854.47;;;3.45;100.00
37856;BME280;23694;43.274;26.924;2023-02-28T22:10:01;99858.06;;;3.40;100.00
37856;BME280;23694;43.274;26.924;2023-02-28T22:12:54;99853.69;;;3.42;100.00
37856;BME280;23694;43.274;26.924;2023-02-28T22:15:56;99852.06;;;3.38;100.00
37856;BME280;23694;43.274;26.924;2023-02-28T22:25:06;99855.47;;;3.40;100.00
37856;BME280;23694;43.274;26.924;2023-02-28T22:31:18;99855.41;;;3.43;100.00
37856;BME280;23694;43.274;26.924;2023-02-28T22:37:03;99858.09;;;3.38;100.00
37856;BME280;23694;43.274;26.924;2023-02-28T22:39:48;99857.13;;;3.42;100.00
37856;BME280;23694;43.274;26.924;2023-02-28T22:42:31;99855.53;;;3.37;100.00
37856;BME280;23694;43.274;26.924;2023-02-28T22:45:07;99855.72;;;3.29;100.00
37856;BME280;23694;43.274;26.924;2023-02-28T22:48:01;99860.94;;;3.28;100.00
37856;BME280;23694;43.274;26.924;2023-02-28T22:51:17;99850.44;;;3.34;100.00
37856;BME280;23694;43.274;26.924;2023-02-28T22:57:07;99847.63;;;3.43;100.00
37856;BME280;23694;43.274;26.924;2023-02-28T22:59:53;99838.84;;;3.48;100.00
37856;BME280;23694;43.274;26.924;2023-02-28T23:05:45;99853.22;;;3.60;100.00
37856;BME280;23694;43.274;26.924;2023-02-28T23:09:01;99855.63;;;3.68;100.00
37856;BME280;23694;43.274;26.924;2023-02-28T23:15:09;99847.94;;;3.65;100.00
37856;BME280;23694;43.274;26.924;2023-02-28T23:18:10;99843.72;;;3.61;100.00